Time;durP1;ratioP1;P1;durP2;ratioP2;P2;SDS_P1;SDS_P2;PMS_P1;PMS_P2;Temp;Humidity;BMP_temperature;BMP_pressure;BME280_temperature;BME280_humidity;BME280_pressure;Samples;Min_cycle;Max_cycle;Signal;HPM_P1;HPM_P2
2023/08/11 00:09:59;;;;;;;7.38;2.13;;;;;;;-142.57;64.39;115900.28;3018688;22;20079;-92
2023/08/11 00:13:12;;;;;;;6.38;2.28;;;;;;;-142.57;65.58;115900.28;5058674;28;20040;-92
2023/08/11 00:15:55;;;;;;;3.67;1.80;;;;;;;-142.57;65.96;115900.28;5059052;28;20051;-92
2023/08/11 03:07:59;;;;;;;8.80;3.83;;;;;;;-142.57;95.32;115900.28;5110807;27;20392;-87
2023/08/11 03:10:25;;;;;;;6.18;3.88;;;;;;;-142.57;95.53;115900.28;5091660;28;20499;-87
2023/08/11 03:12:50;;;;;;;8.65;4.50;;;;;;;-142.57;97.02;115900.28;5075494;28;20044;-89
2023/08/11 03:15:17;;;;;;;12.43;4.32;;;;;;;-142.57;97.37;115900.28;5082800;28;20055;-86
2023/08/11 03:17:42;;;;;;;7.45;4.30;;;;;;;-142.57;98.85;115900.28;5115486;28;20024;-88
2023/08/11 03:20:15;;;;;;;11.45;4.63;;;;;;;-142.57;97.92;115900.28;5114455;28;20032;-86
2023/08/11 03:22:45;;;;;;;10.05;4.25;;;;;;;-142.57;100.00;115900.28;5115599;28;20042;-87
2023/08/11 03:28:59;;;;;;;4.90;3.83;;;;;;;-142.57;100.00;115900.28;5111941;28;20062;-87
2023/08/11 03:31:25;;;;;;;11.90;4.70;;;;;;;-142.57;100.00;115900.28;5106747;28;20036;-88
2023/08/11 03:33:51;;;;;;;9.93;4.60;;;;;;;-142.57;100.00;115900.28;5091335;28;20024;-87
2023/08/11 03:36:17;;;;;;;6.35;4.30;;;;;;;-142.57;100.00;115900.28;5091217;28;20064;-90
2023/08/11 03:38:44;;;;;;;8.65;4.88;;;;;;;-142.57;100.00;115900.28;5073279;28;20040;-85
2023/08/11 03:41:09;;;;;;;10.10;4.30;;;;;;;-142.57;100.00;115900.28;5089646;28;20500;-89
2023/08/11 03:43:36;;;;;;;7.50;4.57;;;;;;;-142.57;100.00;115900.28;5089644;28;21213;-89
2023/08/11 03:46:02;;;;;;;7.68;4.70;;;;;;;-142.57;100.00;115900.28;5090875;28;20025;-90
2023/08/11 03:48:27;;;;;;;7.25;4.60;;;;;;;-142.57;100.00;115900.28;5089591;28;20036;-87
2023/08/11 03:50:58;;;;;;;13.18;5.30;;;;;;;-142.57;100.00;115900.28;5089575;28;20105;-88
2023/08/11 03:53:24;;;;;;;9.73;5.38;;;;;;;-142.57;100.00;115900.28;5090833;28;20033;-85
2023/08/11 03:56:29;;;;;;;18.52;5.40;;;;;;;-142.57;100.00;115900.28;5097518;28;20033;-86
2023/08/11 03:58:55;;;;;;;15.90;5.55;;;;;;;-142.57;100.00;115900.28;5106870;28;20047;-88
2023/08/11 04:01:20;;;;;;;8.05;4.72;;;;;;;-142.57;100.00;115900.28;5103520;28;20450;-86
2023/08/11 04:03:46;;;;;;;8.63;5.22;;;;;;;-142.57;100.00;115900.28;5089778;28;20110;-89
2023/08/11 04:06:17;;;;;;;10.82;5.60;;;;;;;-142.57;100.00;115900.28;5089335;28;20070;-87
2023/08/11 04:08:44;;;;;;;8.27;4.70;;;;;;;-142.57;100.00;115900.28;5078451;28;20036;-89
2023/08/11 04:11:09;;;;;;;10.45;4.65;;;;;;;-142.57;100.00;115900.28;5059645;28;20116;-88
2023/08/11 04:13:35;;;;;;;15.50;5.57;;;;;;;-142.57;100.00;115900.28;5075713;28;20389;-88
2023/08/11 04:16:01;;;;;;;10.60;4.93;;;;;;;-142.57;100.00;115900.28;5077358;28;20127;-89
2023/08/11 04:18:26;;;;;;;8.88;5.40;;;;;;;-142.57;100.00;115900.28;5076891;28;20055;-89
2023/08/11 04:20:52;;;;;;;14.25;6.03;;;;;;;-142.57;100.00;115900.28;5076689;28;20036;-89
2023/08/11 04:23:17;;;;;;;11.27;5.10;;;;;;;-142.57;100.00;115900.28;5075673;28;20040;-90
2023/08/11 04:25:43;;;;;;;9.65;5.40;;;;;;;-142.57;100.00;115900.28;5076494;28;20028;-88
2023/08/11 04:28:09;;;;;;;16.38;5.13;;;;;;;-142.57;100.00;115900.28;5076583;28;20029;-88
2023/08/11 04:30:35;;;;;;;8.50;5.50;;;;;;;-142.57;100.00;115900.28;5058561;28;20044;-88
2023/08/11 04:33:01;;;;;;;10.73;5.05;;;;;;;-142.57;100.00;115900.28;5059217;28;20063;-88
2023/08/11 04:35:30;;;;;;;10.45;5.22;;;;;;;-142.57;100.00;115900.28;5075551;28;20371;-86
2023/08/11 04:37:56;;;;;;;9.43;4.93;;;;;;;-142.57;100.00;115900.28;5075685;28;20498;-87
2023/08/11 04:40:25;;;;;;;12.68;5.65;;;;;;;-142.57;100.00;115900.28;5075963;28;20032;-88
2023/08/11 04:42:50;;;;;;;11.77;5.93;;;;;;;-142.57;100.00;115900.28;5075605;28;20067;-89
2023/08/11 04:45:21;;;;;;;13.35;6.70;;;;;;;-142.57;100.00;115900.28;5078080;28;20029;-89
2023/08/11 04:47:47;;;;;;;12.30;5.90;;;;;;;-142.57;100.00;115900.28;5059216;28;20246;-88
2023/08/11 04:50:18;;;;;;;7.65;5.15;;;;;;;-142.57;100.00;115900.28;5059931;28;20029;-89
2023/08/11 04:52:47;;;;;;;10.23;5.70;;;;;;;-142.57;100.00;115900.28;5076876;28;20056;-89
2023/08/11 04:55:12;;;;;;;13.38;5.28;;;;;;;-142.57;100.00;115900.28;5076510;28;20024;-87
2023/08/11 04:57:38;;;;;;;10.45;4.57;;;;;;;-142.57;100.00;115900.28;5075699;28;20405;-89
2023/08/11 05:00:13;;;;;;;7.97;3.97;;;;;;;-142.57;100.00;115900.28;5075502;28;20028;-87
2023/08/11 05:02:41;;;;;;;9.15;4.28;;;;;;;-142.57;100.00;115900.28;5078097;28;20040;-85
2023/08/11 05:05:10;;;;;;;11.38;5.13;;;;;;;-142.57;100.00;115900.28;5076801;28;20119;-87
2023/08/11 05:07:37;;;;;;;13.80;4.57;;;;;;;-142.57;100.00;115900.28;5077268;28;20458;-88
2023/08/11 05:10:04;;;;;;;8.95;5.53;;;;;;;-142.57;100.00;115900.28;5076650;28;20032;-87
2023/08/11 05:12:30;;;;;;;7.78;3.78;;;;;;;-142.57;100.00;115900.28;5076827;28;20031;-89
2023/08/11 05:14:56;;;;;;;9.40;3.75;;;;;;;-142.57;100.00;115900.28;5075974;28;20056;-87
2023/08/11 05:17:21;;;;;;;14.40;4.25;;;;;;;-142.57;100.00;115900.28;5076044;28;20039;-87
2023/08/11 05:19:47;;;;;;;10.23;4.15;;;;;;;-142.57;100.00;115900.28;5075336;28;20426;-87
2023/08/11 05:22:12;;;;;;;14.98;4.78;;;;;;;-142.57;100.00;115900.28;5074857;28;20460;-89
2023/08/11 05:24:38;;;;;;;12.13;4.28;;;;;;;-142.57;100.00;115900.28;5076743;28;20070;-87
2023/08/11 05:27:05;;;;;;;8.80;4.53;;;;;;;-142.57;100.00;115900.28;5077816;28;20020;-88
2023/08/11 05:29:32;;;;;;;12.68;4.30;;;;;;;-142.57;100.00;115900.28;5081496;28;20064;-88
2023/08/11 05:32:00;;;;;;;10.77;4.18;;;;;;;-142.57;100.00;115900.28;5079401;28;20035;-92
2023/08/11 05:34:27;;;;;;;11.23;4.43;;;;;;;-142.57;100.00;115900.28;5062408;28;20111;-85
2023/08/11 05:36:53;;;;;;;10.52;4.15;;;;;;;-142.57;100.00;115900.28;5079943;28;20040;-85
2023/08/11 05:39:19;;;;;;;11.77;4.85;;;;;;;-142.57;99.77;115900.28;5076919;28;20036;-85
2023/08/11 05:41:44;;;;;;;16.90;4.93;;;;;;;-142.57;98.32;115900.28;5076652;28;20025;-84
2023/08/11 05:44:10;;;;;;;8.70;4.40;;;;;;;-142.57;96.87;115900.28;5059339;28;20041;-84
2023/08/11 05:46:35;;;;;;;7.43;4.45;;;;;;;-142.57;94.66;115900.28;5076329;28;20035;-84
2023/08/11 05:49:01;;;;;;;14.27;5.38;;;;;;;-142.57;95.72;115900.28;5076322;28;20021;-86
2023/08/11 05:51:26;;;;;;;14.55;5.28;;;;;;;-142.57;91.38;115900.28;5075771;28;20044;-84
2023/08/11 05:53:58;;;;;;;12.65;4.35;;;;;;;-142.57;86.82;115900.28;5077691;28;20115;-86
2023/08/11 05:56:26;;;;;;;13.13;4.93;;;;;;;-142.57;82.99;115900.28;5058557;28;20510;-84
2023/08/11 05:58:52;;;;;;;10.98;4.40;;;;;;;-142.57;83.21;115900.28;5076468;28;20028;-84
2023/08/11 06:01:17;;;;;;;12.63;4.53;;;;;;;-142.57;77.39;115900.28;5074782;28;20031;-80
2023/08/11 06:03:43;;;;;;;10.15;4.40;;;;;;;-142.57;78.71;115900.28;5075955;28;20028;-85
2023/08/11 06:06:08;;;;;;;10.85;4.43;;;;;;;-142.57;73.77;115900.28;5075935;28;20041;-83
2023/08/11 06:08:42;;;;;;;14.32;3.47;;;;;;;-142.57;72.14;115900.28;5075352;28;20020;-83
2023/08/11 06:11:09;;;;;;;10.63;3.88;;;;;;;-142.57;71.06;115900.28;5058116;28;20048;-81
2023/08/11 06:13:34;;;;;;;9.95;4.20;;;;;;;-142.57;69.37;115900.28;5075109;28;20031;-83
2023/08/11 06:16:00;;;;;;;10.15;4.78;;;;;;;-142.57;71.93;115900.28;5074928;28;20123;-81
2023/08/11 06:18:27;;;;;;;16.60;4.75;;;;;;;-142.57;72.80;115900.28;5077417;28;20039;-79
2023/08/11 06:20:53;;;;;;;7.50;4.55;;;;;;;-142.57;72.18;115900.28;5094309;28;20038;-81
2023/08/11 06:23:19;;;;;;;7.53;4.80;;;;;;;-142.57;72.52;115900.28;5093882;28;20028;-82
2023/08/11 06:25:44;;;;;;;8.82;4.20;;;;;;;-142.57;69.13;115900.28;5095934;28;20019;-89
2023/08/11 06:28:14;;;;;;;10.07;5.07;;;;;;;-142.57;64.36;115900.28;5092301;28;20067;-88
2023/08/11 06:30:39;;;;;;;8.40;5.03;;;;;;;-142.57;59.00;115900.28;5078305;28;20086;-85
2023/08/11 06:33:05;;;;;;;15.02;5.50;;;;;;;-142.57;58.60;115900.28;5078791;28;20156;-88
2023/08/11 06:35:31;;;;;;;8.27;5.05;;;;;;;-142.57;64.79;115900.28;5075791;28;20036;-86
2023/08/11 06:37:57;;;;;;;7.85;4.68;;;;;;;-142.57;61.41;115900.28;5075361;28;20471;-84
2023/08/11 06:40:23;;;;;;;8.65;4.10;;;;;;;-142.57;59.14;115900.28;5074516;28;20083;-84
2023/08/11 06:42:48;;;;;;;7.70;4.78;;;;;;;-142.57;58.29;115900.28;5074512;28;20527;-85
2023/08/11 06:45:14;;;;;;;9.00;5.13;;;;;;;-142.57;59.19;115900.28;5076845;28;20100;-88
2023/08/11 06:47:39;;;;;;;8.57;4.80;;;;;;;-142.57;62.28;115900.28;5058539;28;20500;-85
2023/08/11 06:50:05;;;;;;;12.80;5.28;;;;;;;-142.57;60.49;115900.28;5078202;28;20028;-85
2023/08/11 06:55:56;;;;;;;;;;;;;;;-142.57;58.57;115900.28;5094286;28;20048;-88
2023/08/11 06:58:21;;;;;;;9.30;4.88;;;;;;;-142.57;56.93;115900.28;5076685;28;19920;-88
2023/08/11 07:00:47;;;;;;;11.23;4.90;;;;;;;-142.57;59.04;115900.28;5089117;28;20037;-87
2023/08/11 07:03:16;;;;;;;10.95;4.88;;;;;;;-142.57;55.82;115900.28;5096579;28;20107;-88
2023/08/11 07:05:42;;;;;;;12.07;4.53;;;;;;;-142.57;55.38;115900.28;5096755;28;20043;-86
2023/08/11 07:08:09;;;;;;;9.32;4.35;;;;;;;-142.57;52.63;115900.28;5097636;28;20017;-88
2023/08/11 07:10:35;;;;;;;9.57;4.75;;;;;;;-142.57;49.39;115900.28;5097168;28;20035;-90
2023/08/11 07:13:01;;;;;;;14.13;4.07;;;;;;;-142.57;48.02;115900.28;5062036;28;20056;-87
2023/08/11 07:19:18;;;;;;;9.30;4.75;;;;;;;-142.57;52.18;115900.28;5081488;28;20088;-88
2023/08/11 07:21:49;;;;;;;8.05;4.50;;;;;;;-142.57;53.57;115900.28;5062966;28;20051;-88
2023/08/11 07:24:15;;;;;;;10.70;4.68;;;;;;;-142.57;53.68;115900.28;5078745;28;20099;-88
2023/08/11 07:26:41;;;;;;;8.68;4.22;;;;;;;-142.57;52.85;115900.28;5079463;28;20491;-86
2023/08/11 07:29:08;;;;;;;8.85;4.40;;;;;;;-142.57;52.56;115900.28;5078841;28;20039;-88
2023/08/11 07:31:33;;;;;;;7.78;4.15;;;;;;;-142.57;53.11;115900.28;5079388;28;20032;-83
2023/08/11 07:34:02;;;;;;;8.10;4.88;;;;;;;-142.57;52.67;115900.28;5075856;28;20032;-90
2023/08/11 07:36:27;;;;;;;12.32;4.95;;;;;;;-142.57;52.74;115900.28;5079783;28;20036;-86
2023/08/11 07:38:53;;;;;;;9.15;4.45;;;;;;;-142.57;52.52;115900.28;5078292;28;20025;-86
2023/08/11 07:41:21;;;;;;;9.55;3.60;;;;;;;-142.57;49.90;115900.28;5077086;28;20040;-87
2023/08/11 07:43:47;;;;;;;10.05;4.25;;;;;;;-142.57;49.16;115900.28;5060734;28;20037;-87
2023/08/11 07:46:13;;;;;;;11.80;4.20;;;;;;;-142.57;46.62;115900.28;5081481;28;20394;-88
2023/08/11 07:48:39;;;;;;;12.15;3.95;;;;;;;-142.57;46.34;115900.28;5080767;28;20040;-85
2023/08/11 07:51:05;;;;;;;9.35;4.07;;;;;;;-142.57;45.54;115900.28;5079458;28;20025;-85
2023/08/11 07:53:31;;;;;;;9.05;3.92;;;;;;;-142.57;43.27;115900.28;5079441;28;20032;-85
2023/08/11 07:55:57;;;;;;;12.68;3.97;;;;;;;-142.57;42.46;115900.28;5074111;28;20113;-87
2023/08/11 07:58:23;;;;;;;12.88;4.95;;;;;;;-142.57;45.40;115900.28;5073573;28;20040;-87
2023/08/11 08:00:49;;;;;;;10.57;4.40;;;;;;;-142.57;45.50;115900.28;5065706;28;20064;-84
2023/08/11 08:03:14;;;;;;;13.35;4.43;;;;;;;-142.57;45.94;115900.28;5057325;28;20533;-86
2023/08/11 08:05:42;;;;;;;11.63;4.80;;;;;;;-142.57;45.08;115900.28;5057851;28;20119;-83
2023/08/11 08:08:08;;;;;;;9.63;4.57;;;;;;;-142.57;45.11;115900.28;5058016;28;20044;-84
2023/08/11 08:10:33;;;;;;;9.30;3.80;;;;;;;-142.57;45.18;115900.28;5055958;28;20041;-86
2023/08/11 08:12:59;;;;;;;5.95;3.58;;;;;;;-142.57;42.15;115900.28;5058033;28;20013;-88
2023/08/11 08:15:28;;;;;;;11.15;4.43;;;;;;;-142.57;42.95;115900.28;5057868;28;20418;-85
2023/08/11 08:17:56;;;;;;;8.90;4.82;;;;;;;-142.57;42.56;115900.28;5060603;28;20032;-86
2023/08/11 08:20:22;;;;;;;9.00;4.45;;;;;;;-142.57;42.39;115900.28;5059401;28;20040;-86
2023/08/11 08:22:48;;;;;;;8.23;3.63;;;;;;;-142.57;41.99;115900.28;5058395;28;20433;-84
2023/08/11 08:25:14;;;;;;;8.00;3.53;;;;;;;-142.57;40.67;115900.28;5058577;28;20124;-86
2023/08/11 08:27:41;;;;;;;6.40;3.22;;;;;;;-142.57;40.31;115900.28;5039912;28;20112;-85
2023/08/11 08:30:09;;;;;;;9.35;3.00;;;;;;;-142.57;37.70;115900.28;5058154;28;20029;-90
2023/08/11 08:32:37;;;;;;;10.15;2.80;;;;;;;-142.57;39.29;115900.28;5043496;28;20065;-87
2023/08/11 08:35:03;;;;;;;5.68;2.58;;;;;;;-142.57;39.31;115900.28;5055221;28;20098;-85
2023/08/11 08:37:29;;;;;;;10.77;3.30;;;;;;;-142.57;40.11;115900.28;5056769;28;20025;-86
2023/08/11 08:39:55;;;;;;;11.02;3.47;;;;;;;-142.57;39.56;115900.28;5077063;28;20028;-87
2023/08/11 08:42:23;;;;;;;4.78;2.97;;;;;;;-142.57;38.96;115900.28;5076903;28;20464;-88
2023/08/11 08:44:49;;;;;;;9.68;2.65;;;;;;;-142.57;38.53;115900.28;5055848;28;20661;-90
2023/08/11 08:47:18;;;;;;;6.05;2.85;;;;;;;-142.57;36.61;115900.28;5074551;28;20080;-84
2023/08/11 08:49:48;;;;;;;8.23;2.85;;;;;;;-142.57;35.96;115900.28;5077300;28;20036;-88
2023/08/11 08:52:15;;;;;;;8.18;2.53;;;;;;;-142.57;35.99;115900.28;5075688;28;20490;-84
2023/08/11 08:54:41;;;;;;;7.22;2.58;;;;;;;-142.57;37.62;115900.28;5077512;28;20043;-86
2023/08/11 08:57:10;;;;;;;5.90;2.72;;;;;;;-142.57;36.65;115900.28;5077191;28;20033;-87
2023/08/11 08:59:39;;;;;;;5.82;2.70;;;;;;;-142.57;36.31;115900.28;5070675;28;20052;-85
2023/08/11 09:02:06;;;;;;;9.85;3.05;;;;;;;-142.57;35.80;115900.28;5040098;28;20037;-87
2023/08/11 09:04:33;;;;;;;4.43;2.70;;;;;;;-142.57;36.38;115900.28;5061070;28;20024;-85
2023/08/11 09:07:00;;;;;;;4.97;2.00;;;;;;;-142.57;36.85;115900.28;5077702;28;20041;-86
2023/08/11 09:09:29;;;;;;;3.83;2.22;;;;;;;-142.57;35.60;115900.28;5074441;28;20071;-87
2023/08/11 09:11:55;;;;;;;8.55;2.28;;;;;;;-142.57;34.39;115900.28;5076109;28;20032;-87
2023/08/11 09:14:22;;;;;;;6.47;2.33;;;;;;;-142.57;34.17;115900.28;5075842;28;20033;-86
2023/08/11 09:16:50;;;;;;;8.75;2.30;;;;;;;-142.57;33.48;115900.28;5076376;28;20154;-86
2023/08/11 09:19:19;;;;;;;4.97;2.10;;;;;;;-142.57;33.04;115900.28;5076267;28;20423;-86
2023/08/11 09:21:45;;;;;;;5.38;2.78;;;;;;;-142.57;33.92;115900.28;5079136;28;20029;-87
2023/08/11 09:24:14;;;;;;;11.10;2.38;;;;;;;-142.57;34.76;115900.28;5077202;28;20364;-87
2023/08/11 09:26:53;;;;;;;4.20;2.00;;;;;;;-142.57;34.07;115900.28;5076603;28;20040;-89
2023/08/11 09:29:19;;;;;;;3.60;2.08;;;;;;;-142.57;33.73;115900.28;5076179;28;20123;-91
2023/08/11 09:31:52;;;;;;;6.75;2.10;;;;;;;-142.57;34.36;115900.28;5076671;28;20483;-87
2023/08/11 09:34:19;;;;;;;7.45;2.08;;;;;;;-142.57;33.00;115900.28;5077354;28;20035;-87
2023/08/11 09:36:48;;;;;;;9.45;2.20;;;;;;;-142.57;33.69;115900.28;5074985;28;20055;-89
2023/08/11 09:39:14;;;;;;;5.03;2.00;;;;;;;-142.57;33.85;115900.28;5058115;28;20104;-87
2023/08/11 09:41:47;;;;;;;5.65;2.30;;;;;;;-142.57;34.10;115900.28;5076800;28;20037;-89
2023/08/11 09:44:15;;;;;;;6.10;1.77;;;;;;;-142.57;33.02;115900.28;5080440;28;20036;-89
2023/08/11 09:46:42;;;;;;;4.50;1.50;;;;;;;-142.57;32.21;115900.28;5079770;28;20758;-86
2023/08/11 09:49:08;;;;;;;6.78;1.70;;;;;;;-142.57;32.69;115900.28;5082856;28;20127;-83
2023/08/11 09:51:35;;;;;;;4.28;2.10;;;;;;;-142.57;34.17;115900.28;5067690;28;20048;-85
2023/08/11 09:54:07;;;;;;;6.32;1.60;;;;;;;-142.57;33.81;115900.28;5074812;28;20044;-87
2023/08/11 09:56:43;;;;;;;5.82;1.80;;;;;;;-142.57;33.49;115900.28;5064317;28;20037;-85
2023/08/11 09:59:19;;;;;;;5.82;1.63;;;;;;;-142.57;34.11;115900.28;5058919;28;20048;-90
2023/08/11 10:01:46;;;;;;;6.95;1.90;;;;;;;-142.57;34.08;115900.28;5058761;28;20040;-85
2023/08/11 10:04:33;;;;;;;8.40;2.00;;;;;;;-142.57;34.02;115900.28;5061448;28;20033;-85
2023/08/11 10:07:01;;;;;;;3.63;1.80;;;;;;;-142.57;33.30;115900.28;5064731;28;20407;-88
2023/08/11 10:09:31;;;;;;;4.57;1.83;;;;;;;-142.57;33.29;115900.28;5085004;28;20052;-88
2023/08/11 10:11:58;;;;;;;6.40;1.83;;;;;;;-142.57;33.39;115900.28;5085585;28;20044;-84
2023/08/11 10:14:27;;;;;;;4.35;1.42;;;;;;;-142.57;33.76;115900.28;5066487;28;20037;-84
2023/08/11 10:16:53;;;;;;;3.45;2.08;;;;;;;-142.57;33.95;115900.28;5063942;28;20040;-87
2023/08/11 10:19:22;;;;;;;4.70;2.08;;;;;;;-142.57;33.33;115900.28;5067664;28;20029;-86
2023/08/11 10:21:48;;;;;;;3.85;1.85;;;;;;;-142.57;33.03;115900.28;5086103;28;20077;-87
2023/08/11 10:24:14;;;;;;;2.35;1.60;;;;;;;-142.57;32.77;115900.28;5087545;28;20510;-85
2023/08/11 10:26:40;;;;;;;2.10;1.20;;;;;;;-142.57;32.51;115900.28;5084222;28;20044;-89
2023/08/11 10:29:08;;;;;;;2.75;1.50;;;;;;;-142.57;32.43;115900.28;5082097;28;20032;-86
2023/08/11 10:31:34;;;;;;;4.60;1.60;;;;;;;-142.57;32.81;115900.28;5080680;28;20033;-88
2023/08/11 10:34:07;;;;;;;5.32;1.80;;;;;;;-142.57;33.07;115900.28;5083228;28;20123;-88
2023/08/11 10:36:33;;;;;;;4.53;1.90;;;;;;;-142.57;33.25;115900.28;5078208;28;20036;-87
2023/08/11 10:39:04;;;;;;;4.60;2.10;;;;;;;-142.57;33.22;115900.28;5078595;28;20443;-88
2023/08/11 10:41:30;;;;;;;5.63;1.75;;;;;;;-142.57;34.34;115900.28;5077317;28;20111;-90
2023/08/11 10:43:56;;;;;;;12.52;1.75;;;;;;;-142.57;34.42;115900.28;5079926;28;20046;-89
2023/08/11 10:46:30;;;;;;;4.93;1.83;;;;;;;-142.57;33.69;115900.28;5060331;28;20040;-87
2023/08/11 10:49:31;;;;;;;7.70;1.83;;;;;;;-142.57;33.52;115900.28;5077033;28;20037;-89
2023/08/11 10:51:58;;;;;;;8.25;1.90;;;;;;;-142.57;33.38;115900.28;5055270;28;20060;-85
2023/08/11 10:54:25;;;;;;;6.97;2.17;;;;;;;-142.57;33.65;115900.28;5058644;28;20029;-87
2023/08/11 10:56:55;;;;;;;3.92;1.80;;;;;;;-142.57;33.10;115900.28;5058498;28;20041;-88
2023/08/11 10:59:29;;;;;;;5.65;2.05;;;;;;;-142.57;33.07;115900.28;5055728;28;20045;-87
2023/08/11 11:01:59;;;;;;;3.33;1.70;;;;;;;-142.57;33.08;115900.28;5060464;28;20677;-88
2023/08/11 11:04:32;;;;;;;6.18;1.67;;;;;;;-142.57;33.25;115900.28;5042287;28;20119;-88
2023/08/11 11:07:00;;;;;;;2.72;1.77;;;;;;;-142.57;33.20;115900.28;5057866;28;20096;-88
2023/08/11 11:09:29;;;;;;;4.22;1.90;;;;;;;-142.57;33.49;115900.28;5058086;28;20029;-85
2023/08/11 11:11:56;;;;;;;5.18;1.90;;;;;;;-142.57;32.82;115900.28;5058158;28;20095;-86
2023/08/11 11:14:22;;;;;;;5.15;1.52;;;;;;;-142.57;32.69;115900.28;5057586;28;20052;-86
2023/08/11 11:16:47;;;;;;;6.18;1.60;;;;;;;-142.57;32.99;115900.28;5057346;28;20120;-86
2023/08/11 11:19:13;;;;;;;9.02;1.55;;;;;;;-142.57;32.57;115900.28;5062232;28;20061;-89
2023/08/11 11:21:40;;;;;;;6.68;2.00;;;;;;;-142.57;32.47;115900.28;5078041;28;20119;-90
2023/08/11 11:24:08;;;;;;;6.13;1.80;;;;;;;-142.57;32.21;115900.28;5081942;28;20084;-84
2023/08/11 11:26:34;;;;;;;5.35;1.65;;;;;;;-142.57;32.47;115900.28;5069954;28;20033;-87
2023/08/11 11:29:03;;;;;;;4.40;1.60;;;;;;;-142.57;32.26;115900.28;5082898;28;20032;-85
2023/08/11 11:31:32;;;;;;;10.00;1.45;;;;;;;-142.57;32.08;115900.28;5083012;28;20115;-88
2023/08/11 11:33:58;;;;;;;5.03;1.95;;;;;;;-142.57;32.18;115900.28;5082842;28;20037;-91
2023/08/11 11:36:25;;;;;;;7.13;2.13;;;;;;;-142.57;31.79;115900.28;5087748;28;20044;-89
2023/08/11 11:38:59;;;;;;;10.13;2.00;;;;;;;-142.57;32.71;115900.28;5088732;28;20025;-88
2023/08/11 11:41:40;;;;;;;4.60;1.75;;;;;;;-142.57;32.26;115900.28;5095004;28;20033;-90
2023/08/11 11:44:09;;;;;;;6.70;1.42;;;;;;;-142.57;33.03;115900.28;5066056;28;20040;-89
2023/08/11 11:46:38;;;;;;;4.68;1.67;;;;;;;-142.57;33.09;115900.28;5084893;28;20041;-88
2023/08/11 11:49:06;;;;;;;6.03;1.85;;;;;;;-142.57;33.88;115900.28;5082145;28;20017;-88
2023/08/11 11:51:35;;;;;;;3.83;1.65;;;;;;;-142.57;34.67;115900.28;5086012;28;20055;-88
2023/08/11 11:54:00;;;;;;;6.07;1.67;;;;;;;-142.57;35.48;115900.28;5077595;28;20029;-89
2023/08/11 11:56:46;;;;;;;7.15;1.75;;;;;;;-142.57;35.35;115900.28;5079061;28;20055;-93
2023/08/11 11:59:18;;;;;;;6.78;1.88;;;;;;;-142.57;35.42;115900.28;5085970;28;20036;-89
2023/08/11 12:01:44;;;;;;;;;;;;;;;-142.57;35.88;115900.28;5085184;28;20119;-89
2023/08/11 12:04:10;;;;;;;12.32;1.73;;;;;;;-142.57;36.67;115900.28;5086645;28;19912;-87
2023/08/11 12:06:36;;;;;;;8.25;1.50;;;;;;;-142.57;36.68;115900.28;5083708;28;20129;-89
2023/08/11 12:09:08;;;;;;;5.97;2.08;;;;;;;-142.57;37.10;115900.28;5082055;28;20089;-87
2023/08/11 12:11:35;;;;;;;5.70;1.80;;;;;;;-142.57;37.19;115900.28;5066116;28;20035;-89
2023/08/11 12:14:02;;;;;;;4.50;1.55;;;;;;;-142.57;37.27;115900.28;5083654;28;20078;-90
2023/08/11 12:16:31;;;;;;;4.85;1.60;;;;;;;-142.57;37.29;115900.28;5032924;28;20041;-88
2023/08/11 12:19:01;;;;;;;4.22;1.75;;;;;;;-142.57;37.55;115900.28;5081017;28;20021;-87
2023/08/11 12:21:27;;;;;;;3.10;1.58;;;;;;;-142.57;37.92;115900.28;5078383;28;20037;-87
2023/08/11 12:23:53;;;;;;;4.60;1.58;;;;;;;-142.57;37.75;115900.28;5080746;28;20048;-87
2023/08/11 12:26:21;;;;;;;4.63;1.65;;;;;;;-142.57;38.01;115900.28;5082278;28;20040;-86
2023/08/11 12:28:48;;;;;;;3.25;1.70;;;;;;;-142.57;38.23;115900.28;5063535;28;20119;-89
2023/08/11 12:31:13;;;;;;;7.28;1.83;;;;;;;-142.57;38.68;115900.28;5077901;28;20020;-89
2023/08/11 12:33:40;;;;;;;4.43;1.83;;;;;;;-142.57;38.60;115900.28;5069119;28;20066;-87
2023/08/11 12:36:06;;;;;;;6.70;1.70;;;;;;;-142.57;38.32;115900.28;5063130;28;20126;-86
2023/08/11 12:38:31;;;;;;;6.25;1.98;;;;;;;-142.57;38.38;115900.28;5044962;28;20086;-87
2023/08/11 12:40:59;;;;;;;4.80;1.77;;;;;;;-142.57;38.44;115900.28;5064179;28;20040;-89
2023/08/11 12:43:25;;;;;;;4.38;1.58;;;;;;;-142.57;38.92;115900.28;5068227;28;20036;-88
2023/08/11 12:45:51;;;;;;;6.90;2.00;;;;;;;-142.57;39.03;115900.28;5070009;28;20033;-87
2023/08/11 12:48:18;;;;;;;7.50;1.50;;;;;;;-142.57;38.86;115900.28;5067102;28;20487;-80
2023/08/11 12:50:44;;;;;;;4.10;1.67;;;;;;;-142.57;39.56;115900.28;5075063;28;20454;-85
2023/08/11 12:53:09;;;;;;;14.25;1.98;;;;;;;-142.57;38.98;115900.28;5075395;28;20068;-85
2023/08/11 12:55:39;;;;;;;9.00;1.90;;;;;;;-142.57;38.61;115900.28;5075032;28;20395;-83
2023/08/11 12:58:05;;;;;;;5.03;2.08;;;;;;;-142.57;38.85;115900.28;5073634;28;20114;-86
2023/08/11 13:00:31;;;;;;;3.63;2.15;;;;;;;-142.57;39.33;115900.28;5073716;28;20402;-84
2023/08/11 13:02:57;;;;;;;6.18;1.90;;;;;;;-142.57;39.42;115900.28;5073642;28;20032;-86
2023/08/11 13:05:22;;;;;;;3.75;1.60;;;;;;;-142.57;39.03;115900.28;5074757;28;20525;-84
2023/08/11 13:07:48;;;;;;;3.90;1.92;;;;;;;-142.57;38.67;115900.28;5074979;28;20041;-86
2023/08/11 13:10:14;;;;;;;10.82;1.58;;;;;;;-142.57;39.05;115900.28;5073549;28;20487;-85
2023/08/11 13:12:40;;;;;;;4.47;1.88;;;;;;;-142.57;38.92;115900.28;5074696;28;20099;-83
2023/08/11 13:15:07;;;;;;;3.63;1.70;;;;;;;-142.57;39.18;115900.28;5074997;28;20025;-83
2023/08/11 13:17:33;;;;;;;7.88;1.88;;;;;;;-142.57;39.10;115900.28;5073384;28;20078;-82
2023/08/11 13:20:01;;;;;;;3.75;1.55;;;;;;;-142.57;39.00;115900.28;5056712;28;20094;-84
2023/08/11 13:22:27;;;;;;;7.00;1.98;;;;;;;-142.57;39.27;115900.28;5074518;28;20037;-84
2023/08/11 13:24:53;;;;;;;4.10;1.80;;;;;;;-142.57;38.73;115900.28;5074784;28;20039;-82
2023/08/11 13:27:18;;;;;;;3.42;1.77;;;;;;;-142.57;38.56;115900.28;5074417;28;20032;-82
2023/08/11 13:29:44;;;;;;;3.88;1.85;;;;;;;-142.57;38.56;115900.28;5073372;28;20036;-86
2023/08/11 13:32:09;;;;;;;6.25;1.58;;;;;;;-142.57;38.99;115900.28;5074910;28;20025;-83
2023/08/11 13:34:35;;;;;;;5.25;1.80;;;;;;;-142.57;38.61;115900.28;5073047;28;20483;-85
2023/08/11 13:37:00;;;;;;;6.60;1.70;;;;;;;-142.57;39.05;115900.28;5056042;28;20028;-85
2023/08/11 13:39:26;;;;;;;3.80;1.70;;;;;;;-142.57;38.72;115900.28;5073697;28;20052;-83
2023/08/11 13:41:53;;;;;;;8.05;1.90;;;;;;;-142.57;38.55;115900.28;5073303;28;20044;-85
2023/08/11 13:44:20;;;;;;;6.15;1.70;;;;;;;-142.57;38.50;115900.28;5074109;28;20037;-83
2023/08/11 13:46:46;;;;;;;9.00;1.70;;;;;;;-142.57;38.78;115900.28;5073890;28;20090;-84
2023/08/11 13:49:12;;;;;;;3.42;1.67;;;;;;;-142.57;38.39;115900.28;5074393;28;20436;-81
2023/08/11 13:51:37;;;;;;;7.38;2.13;;;;;;;-142.57;39.00;115900.28;5073108;28;20115;-84
2023/08/11 13:54:04;;;;;;;17.13;1.90;;;;;;;-142.57;38.79;115900.28;5074889;28;20103;-84
2023/08/11 13:56:33;;;;;;;10.82;2.42;;;;;;;-142.57;39.63;115900.28;5083394;28;20117;-89
2023/08/11 13:59:03;;;;;;;1.90;1.48;;;;;;;-142.57;40.04;115900.28;5072829;28;20049;-89
2023/08/11 14:01:37;;;;;;;6.13;1.70;;;;;;;-142.57;39.78;115900.28;5088552;28;20036;-88
2023/08/11 14:04:11;;;;;;;4.72;1.77;;;;;;;-142.57;39.21;115900.28;5080868;28;20044;-87
2023/08/11 14:06:46;;;;;;;4.97;1.77;;;;;;;-142.57;39.67;115900.28;5086538;28;20115;-89
2023/08/11 14:09:13;;;;;;;6.50;1.95;;;;;;;-142.57;39.91;115900.28;5032128;28;20108;-87
2023/08/11 14:11:38;;;;;;;4.00;1.92;;;;;;;-142.57;39.88;115900.28;5061687;28;20032;-90
2023/08/11 14:14:04;;;;;;;7.63;1.95;;;;;;;-142.57;40.05;115900.28;5079720;28;20044;-86
2023/08/11 14:16:35;;;;;;;4.95;1.77;;;;;;;-142.57;39.95;115900.28;5080229;28;20047;-91
2023/08/11 14:19:02;;;;;;;8.85;1.90;;;;;;;-142.57;39.73;115900.28;5063653;28;20037;-90